Time;durP1;ratioP1;P1;durP2;ratioP2;P2;SDS_P1;SDS_P2;PMS_P1;PMS_P2;Temp;Humidity;BMP_temperature;BMP_pressure;BME280_temperature;BME280_humidity;BME280_pressure;Samples;Min_cycle;Max_cycle;Signal;HPM_P1;HPM_P2
2020/12/09 00:00:42;;;;;;;;;;;;;;;-0.56;100.00;91829.22;1061397;56;20197;-84
2020/12/09 00:01:45;;;;;;;;;;;;;;;-0.58;100.00;91830.69;1063424;55;20658;-83
2020/12/09 00:02:47;;;;;;;;;;;;;;;-0.46;100.00;91834.81;1065655;55;20169;-85
2020/12/09 00:03:47;;;;;;;;;;;;;;;-0.52;100.00;91832.59;1067852;55;20157;-83
2020/12/09 00:04:48;;;;;;;;;;;;;;;-0.56;100.00;91834.47;1065528;55;20193;-84
2020/12/09 00:05:48;;;;;;;;;;;;;;;-0.52;100.00;91835.22;1063370;55;20154;-83
2020/12/09 00:06:49;;;;;;;;;;;;;;;-0.55;100.00;91829.97;1065567;55;20161;-84
2020/12/09 00:07:50;;;;;;;;;;;;;;;-0.54;100.00;91837.44;1067775;55;20200;-84
2020/12/09 00:08:51;;;;;;;;;;;;;;;-0.54;100.00;91840.06;1065498;55;20150;-83
2020/12/09 00:09:51;;;;;;;;;;;;;;;-0.57;100.00;91842.69;1061084;56;20213;-82
2020/12/09 00:10:52;;;;;;;;;;;;;;;-0.58;100.00;91839.31;1065187;55;20266;-83
2020/12/09 00:11:53;;;;;;;;;;;;;;;-0.56;100.00;91836.34;1063368;55;20176;-84
2020/12/09 00:12:54;;;;;;;;;;;;;;;-0.63;100.00;91842.31;1063409;55;20201;-83
2020/12/09 00:13:54;;;;;;;;;;;;;;;-0.60;100.00;91844.22;1063506;55;20176;-83
2020/12/09 00:14:57;;;;;;;;;;;;;;;-0.53;100.00;91848.69;1065807;55;20162;-84
2020/12/09 00:15:57;;;;;;;;;;;;;;;-0.54;100.00;91841.94;1065518;55;20773;-83
2020/12/09 00:16:58;;;;;;;;;;;;;;;-0.57;100.00;91847.94;1061148;56;20247;-84
2020/12/09 00:17:58;;;;;;;;;;;;;;;-0.54;100.00;91845.31;1063296;55;20185;-83
2020/12/09 00:18:59;;;;;;;;;;;;;;;-0.54;100.00;91850.56;1067624;55;20253;-83
2020/12/09 00:20:00;;;;;;;;;;;;;;;-0.54;100.00;91844.56;1065383;55;20253;-84
2020/12/09 00:21:00;;;;;;;;;;;;;;;-0.57;100.00;91848.72;1065535;55;20161;-83
2020/12/09 00:22:01;;;;;;;;;;;;;;;-0.53;100.00;91851.31;1065414;55;20165;-82
2020/12/09 00:23:01;;;;;;;;;;;;;;;-0.58;100.00;91841.94;1067638;55;20253;-83
2020/12/09 00:24:03;;;;;;;;;;;;;;;-0.51;100.00;91851.69;1067489;55;20161;-83
2020/12/09 00:25:04;;;;;;;;;;;;;;;-0.55;100.00;91843.81;1065507;55;20618;-83
2020/12/09 00:26:05;;;;;;;;;;;;;;;-0.46;100.00;91842.69;1063395;55;20197;-83
2020/12/09 00:27:06;;;;;;;;;;;;;;;-0.51;100.00;91841.94;1063459;55;20189;-83
2020/12/09 00:28:07;;;;;;;;;;;;;;;-0.60;100.00;91831.09;1065553;55;20651;-84
2020/12/09 00:29:09;;;;;;;;;;;;;;;-0.57;100.00;91834.81;1063395;55;20154;-83
2020/12/09 00:30:11;;;;;;;;;;;;;;;-0.52;100.00;91843.06;1063510;55;20236;-83
2020/12/09 00:31:15;;;;;;;;;;;;;;;-0.55;100.00;91840.44;1063400;55;20247;-83
2020/12/09 00:32:16;;;;;;;;;;;;;;;-0.50;100.00;91834.81;1063654;55;20158;-84
2020/12/09 00:33:17;;;;;;;;;;;;;;;-0.54;100.00;91834.06;1065524;55;20196;-83
2020/12/09 00:34:17;;;;;;;;;;;;;;;-0.52;100.00;91837.84;1061210;56;20189;-82
2020/12/09 00:35:18;;;;;;;;;;;;;;;-0.49;100.00;91835.56;1063367;55;20185;-84
2020/12/09 00:36:19;;;;;;;;;;;;;;;-0.51;100.00;91835.94;1065275;55;20165;-84
2020/12/09 00:37:19;;;;;;;;;;;;;;;-0.46;100.00;91835.56;1067659;55;20953;-86
2020/12/09 00:38:20;;;;;;;;;;;;;;;-0.52;100.00;91837.84;1067743;55;20157;-82
2020/12/09 00:39:21;;;;;;;;;;;;;;;-0.42;100.00;91840.81;1065467;55;20161;-83
2020/12/09 00:40:22;;;;;;;;;;;;;;;-0.43;100.00;91841.94;1063402;55;20158;-84
2020/12/09 00:41:26;;;;;;;;;;;;;;;-0.41;100.00;91839.69;1063305;55;21098;-82
2020/12/09 00:42:27;;;;;;;;;;;;;;;-0.61;100.00;91837.47;1061403;55;20188;-83
2020/12/09 00:43:29;;;;;;;;;;;;;;;-0.67;100.00;91844.19;1065575;55;20158;-84
2020/12/09 00:44:29;;;;;;;;;;;;;;;-0.66;100.00;91848.34;1065526;55;20669;-83
2020/12/09 00:45:30;;;;;;;;;;;;;;;-0.57;100.00;91840.06;1065551;55;20158;-83
2020/12/09 00:46:30;;;;;;;;;;;;;;;-0.61;100.00;91840.09;1063360;55;20196;-83
2020/12/09 00:47:31;;;;;;;;;;;;;;;-0.56;100.00;91850.22;1063371;55;20154;-83
2020/12/09 00:48:31;;;;;;;;;;;;;;;-0.58;100.00;91844.56;1065298;55;20161;-82
2020/12/09 00:49:32;;;;;;;;;;;;;;;-0.58;100.00;91846.44;1063374;56;20170;-83
2020/12/09 00:50:32;;;;;;;;;;;;;;;-0.58;100.00;91846.44;1063428;56;20174;-83
2020/12/09 00:51:33;;;;;;;;;;;;;;;-0.55;100.00;91840.44;1065561;55;20157;-84
2020/12/09 00:52:33;;;;;;;;;;;;;;;-0.52;100.00;91845.69;1063420;56;20217;-83
2020/12/09 00:53:33;;;;;;;;;;;;;;;-0.53;100.00;91841.59;1061296;56;20673;-84
2020/12/09 00:54:36;;;;;;;;;;;;;;;-0.49;100.00;91849.44;1063557;55;20173;-83
2020/12/09 00:55:37;;;;;;;;;;;;;;;-0.50;100.00;91840.06;1063456;55;20587;-82
2020/12/09 00:56:41;;;;;;;;;;;;;;;-0.53;100.00;91840.81;1061175;56;20162;-83
2020/12/09 00:57:41;;;;;;;;;;;;;;;-0.55;100.00;91837.81;1061338;55;20264;-84
2020/12/09 00:58:42;;;;;;;;;;;;;;;-0.52;100.00;91845.69;1061234;56;20267;-84
2020/12/09 00:59:43;;;;;;;;;;;;;;;-0.55;100.00;91841.19;1061356;55;21156;-82
2020/12/09 01:00:44;;;;;;;;;;;;;;;-0.58;100.00;91847.19;1061154;56;20177;-82
2020/12/09 01:01:44;;;;;;;;;;;;;;;-0.52;100.00;91837.84;1063294;55;20173;-84
2020/12/09 01:02:45;;;;;;;;;;;;;;;-0.55;100.00;91841.19;1063516;55;20243;-82
2020/12/09 01:03:46;;;;;;;;;;;;;;;-0.45;100.00;91833.69;1067662;55;20149;-83
2020/12/09 01:04:49;;;;;;;;;;;;;;;-0.43;100.00;91834.06;1065540;55;20153;-84
2020/12/09 01:05:52;;;;;;;;;;;;;;;-0.43;100.00;91837.44;1061576;55;20572;-83
2020/12/09 01:06:52;;;;;;;;;;;;;;;-0.43;100.00;91834.81;1063322;55;20158;-82
2020/12/09 01:07:53;;;;;;;;;;;;;;;-0.46;100.00;91835.56;1063337;56;20161;-84
2020/12/09 01:08:53;;;;;;;;;;;;;;;-0.48;100.00;91837.84;1063415;56;20182;-83
2020/12/09 01:09:54;;;;;;;;;;;;;;;-0.55;100.00;91835.22;1061314;56;20271;-82
2020/12/09 01:10:55;;;;;;;;;;;;;;;-0.54;100.00;91839.31;1063314;56;20158;-84
2020/12/09 01:12:00;;;;;;;;;;;;;;;-0.53;100.00;91838.97;1065603;55;20176;-83
2020/12/09 01:13:00;;;;;;;;;;;;;;;-0.46;100.00;91832.94;1067714;55;20656;-83
2020/12/09 01:14:01;;;;;;;;;;;;;;;-0.46;100.00;91837.44;1065477;55;20165;-83
2020/12/09 01:15:01;;;;;;;;;;;;;;;-0.52;100.00;91837.84;1061269;56;20205;-83
2020/12/09 01:16:02;;;;;;;;;;;;;;;-0.46;100.00;91838.19;1063349;56;20181;-83
2020/12/09 01:17:02;;;;;;;;;;;;;;;-0.48;100.00;91842.31;1063332;56;20180;-83
2020/12/09 01:18:03;;;;;;;;;;;;;;;-0.45;100.00;91847.56;1063265;56;20177;-83
2020/12/09 01:19:04;;;;;;;;;;;;;;;-0.46;100.00;91847.94;1065754;55;20248;-82
2020/12/09 01:20:06;;;;;;;;;;;;;;;-0.43;100.00;91857.69;1063507;55;20150;-84
2020/12/09 01:21:08;;;;;;;;;;;;;;;-0.55;100.00;91856.94;1063545;55;20635;-83
2020/12/09 01:22:08;;;;;;;;;;;;;;;-0.48;100.00;91856.19;1065691;55;20649;-83
2020/12/09 01:23:09;;;;;;;;;;;;;;;-0.51;100.00;91857.69;1063665;55;20254;-83
2020/12/09 01:24:11;;;;;;;;;;;;;;;-0.42;100.00;91848.69;1065925;55;20603;-84
2020/12/09 01:25:11;;;;;;;;;;;;;;;-0.42;100.00;91856.56;1063782;55;20687;-83
2020/12/09 01:26:12;;;;;;;;;;;;;;;-0.45;100.00;91849.44;1063675;55;20173;-84
2020/12/09 01:27:12;;;;;;;;;;;;;;;-0.47;100.00;91856.94;1067958;55;20185;-83
2020/12/09 01:28:13;;;;;;;;;;;;;;;-0.49;100.00;91848.69;1070164;55;20152;-83
2020/12/09 01:29:13;;;;;;;;;;;;;;;-0.48;100.00;91850.94;1065999;55;20187;-83
2020/12/09 01:30:14;;;;;;;;;;;;;;;-0.53;100.00;91854.72;1063880;55;20176;-83
2020/12/09 01:31:20;;;;;;;;;;;;;;;-0.49;100.00;91849.44;1063875;55;20161;-84
2020/12/09 01:32:20;;;;;;;;;;;;;;;-0.52;100.00;91848.31;1065864;55;20149;-83
2020/12/09 01:33:21;;;;;;;;;;;;;;;-0.49;100.00;91848.69;1065765;55;20630;-84
2020/12/09 01:34:22;;;;;;;;;;;;;;;-0.46;100.00;91855.81;1063723;55;20194;-84
2020/12/09 01:35:24;;;;;;;;;;;;;;;-0.49;100.00;91862.56;1065988;55;20178;-83
2020/12/09 01:36:25;;;;;;;;;;;;;;;-0.54;100.00;91853.19;1066397;55;20278;-84
2020/12/09 01:37:25;;;;;;;;;;;;;;;-0.55;100.00;91864.06;1067964;55;20180;-83
2020/12/09 01:38:26;;;;;;;;;;;;;;;-0.44;100.00;91866.69;1063692;55;20728;-84
2020/12/09 01:39:26;;;;;;;;;;;;;;;-0.45;100.00;91863.31;1063352;55;20185;-83
2020/12/09 01:40:27;;;;;;;;;;;;;;;-0.43;100.00;91871.56;1061424;56;20161;-84
2020/12/09 01:41:27;;;;;;;;;;;;;;;-0.37;100.00;91864.78;1061671;56;20651;-83
2020/12/09 01:42:27;;;;;;;;;;;;;;;-0.45;100.00;91871.19;1061355;56;20181;-83
2020/12/09 01:43:28;;;;;;;;;;;;;;;-0.48;100.00;91874.56;1063620;55;20184;-83
2020/12/09 01:44:30;;;;;;;;;;;;;;;-0.45;100.00;91875.69;1065711;55;20200;-83
2020/12/09 01:45:33;;;;;;;;;;;;;;;-0.40;100.00;91888.41;1065855;55;20185;-83
2020/12/09 01:46:33;;;;;;;;;;;;;;;-0.42;100.00;91874.94;1065882;55;20185;-83
2020/12/09 01:47:34;;;;;;;;;;;;;;;-0.43;100.00;91883.94;1063717;55;20166;-83
2020/12/09 01:48:34;;;;;;;;;;;;;;;-0.39;100.00;91893.31;1063772;55;20162;-82
2020/12/09 01:49:35;;;;;;;;;;;;;;;-0.39;100.00;91895.19;1067770;55;20165;-84
2020/12/09 01:50:36;;;;;;;;;;;;;;;-0.43;100.00;91897.81;1065838;55;20655;-83
2020/12/09 01:51:37;;;;;;;;;;;;;;;-0.41;100.00;91898.16;1063573;55;20590;-83
2020/12/09 01:52:37;;;;;;;;;;;;;;;-0.45;100.00;91899.31;1067878;55;20173;-83
2020/12/09 01:53:38;;;;;;;;;;;;;;;-0.37;100.00;91908.69;1070141;55;20183;-83
2020/12/09 01:54:41;;;;;;;;;;;;;;;-0.38;99.98;91909.81;1065789;55;20677;-84
2020/12/09 01:55:41;;;;;;;;;;;;;;;-0.46;99.65;91908.31;1063652;55;20176;-83
2020/12/09 01:56:42;;;;;;;;;;;;;;;-0.46;100.00;91916.19;1065595;55;20232;-81
2020/12/09 01:57:42;;;;;;;;;;;;;;;-0.41;100.00;91915.81;1065773;55;20172;-84
2020/12/09 01:58:43;;;;;;;;;;;;;;;-0.36;100.00;91920.66;1063503;55;20642;-83
2020/12/09 01:59:43;;;;;;;;;;;;;;;-0.35;99.94;91924.78;1064012;55;20595;-84
2020/12/09 02:00:45;;;;;;;;;;;;;;;-0.30;99.54;91924.44;1065941;55;20157;-83
2020/12/09 02:01:45;;;;;;;;;;;;;;;-0.35;99.27;91917.69;1063724;55;20581;-84
2020/12/09 02:02:46;;;;;;;;;;;;;;;-0.36;98.98;91918.03;1061560;56;20194;-84
2020/12/09 02:03:47;;;;;;;;;;;;;;;-0.43;99.89;91923.31;1062016;56;20252;-83
2020/12/09 02:04:47;;;;;;;;;;;;;;;-0.43;100.00;91920.69;1063718;55;20154;-84
2020/12/09 02:05:47;;;;;;;;;;;;;;;-0.38;99.17;91915.81;1063629;55;20157;-83
2020/12/09 02:06:50;;;;;;;;;;;;;;;-0.37;98.93;91913.94;1064100;55;20165;-83
2020/12/09 02:07:50;;;;;;;;;;;;;;;-0.45;99.64;91912.44;1065929;55;20173;-83
2020/12/09 02:08:51;;;;;;;;;;;;;;;-0.41;100.00;91918.44;1065816;55;20158;-84
2020/12/09 02:10:18;;;;;;;;;;;;;;;-0.42;100.00;91906.44;1067868;55;20168;-82
2020/12/09 02:11:18;;;;;;;;;;;;;;;-0.47;100.00;91915.44;1066299;55;20165;-81
2020/12/09 02:12:19;;;;;;;;;;;;;;;-0.39;99.63;91914.31;1063629;55;20622;-82
2020/12/09 02:13:19;;;;;;;;;;;;;;;-0.40;99.66;91915.41;1063651;55;20151;-83
2020/12/09 02:14:20;;;;;;;;;;;;;;;-0.46;99.37;91914.31;1067961;55;20675;-82
2020/12/09 02:15:21;;;;;;;;;;;;;;;-0.47;99.53;91914.69;1063511;55;20641;-84
2020/12/09 02:16:22;;;;;;;;;;;;;;;-0.47;100.00;91912.81;1065430;55;20622;-84
2020/12/09 02:17:23;;;;;;;;;;;;;;;-0.45;100.00;91917.69;1065784;55;20166;-82
2020/12/09 02:18:24;;;;;;;;;;;;;;;-0.52;100.00;91924.44;1061805;56;20178;-83
2020/12/09 02:19:25;;;;;;;;;;;;;;;-0.52;100.00;91916.56;1061568;56;20168;-82
2020/12/09 02:20:25;;;;;;;;;;;;;;;-0.50;100.00;91916.19;1061620;55;20193;-83
2020/12/09 02:21:26;;;;;;;;;;;;;;;-0.41;100.00;91921.06;1063817;55;20699;-83
2020/12/09 02:22:26;;;;;;;;;;;;;;;-0.53;100.00;91917.69;1061608;56;20170;-82
2020/12/09 02:23:27;;;;;;;;;;;;;;;-0.51;100.00;91919.94;1061473;56;20181;-84
2020/12/09 02:24:27;;;;;;;;;;;;;;;-0.56;100.00;91922.94;1065918;55;20161;-82
2020/12/09 02:25:29;;;;;;;;;;;;;;;-0.53;100.00;91920.31;1063660;55;20161;-82
2020/12/09 02:26:29;;;;;;;;;;;;;;;-0.51;100.00;91925.19;1059374;56;20186;-84
2020/12/09 02:27:30;;;;;;;;;;;;;;;-0.53;100.00;91930.81;1059479;56;20280;-83
2020/12/09 02:28:30;;;;;;;;;;;;;;;-0.56;100.00;91923.69;1061372;56;20178;-82
2020/12/09 02:29:31;;;;;;;;;;;;;;;-0.53;100.00;91930.81;1063560;55;20150;-82
2020/12/09 02:30:31;;;;;;;;;;;;;;;-0.56;100.00;91930.81;1063581;55;20173;-82
2020/12/09 02:31:32;;;;;;;;;;;;;;;-0.51;100.00;91925.94;1061378;56;20174;-82
2020/12/09 02:32:32;;;;;;;;;;;;;;;-0.51;100.00;91927.81;1063550;55;20244;-83
2020/12/09 02:33:33;;;;;;;;;;;;;;;-0.52;100.00;91931.56;1063344;55;20606;-83
2020/12/09 02:34:33;;;;;;;;;;;;;;;-0.49;100.00;91932.66;1063564;55;20605;-84
2020/12/09 02:35:34;;;;;;;;;;;;;;;-0.49;100.00;91924.78;1063721;55;20267;-85
2020/12/09 02:36:35;;;;;;;;;;;;;;;-0.52;100.00;91932.31;1064338;55;20216;-83
2020/12/09 02:37:35;;;;;;;;;;;;;;;-0.52;100.00;91931.56;1068089;55;20255;-83
2020/12/09 02:38:36;;;;;;;;;;;;;;;-0.58;100.00;91933.78;1065770;55;20322;-83
2020/12/09 02:39:37;;;;;;;;;;;;;;;-0.53;100.00;91932.66;1063611;55;20255;-82
2020/12/09 02:40:38;;;;;;;;;;;;;;;-0.55;100.00;91930.44;1063539;55;20195;-84
2020/12/09 02:41:39;;;;;;;;;;;;;;;-0.59;100.00;91940.16;1065840;55;20162;-84
2020/12/09 02:42:39;;;;;;;;;;;;;;;-0.62;100.00;91933.03;1065753;55;20162;-82
2020/12/09 02:43:40;;;;;;;;;;;;;;;-0.59;100.00;91936.78;1067823;55;20258;-84
2020/12/09 02:44:40;;;;;;;;;;;;;;;-0.63;100.00;91931.53;1066135;55;20680;-84
2020/12/09 02:45:40;;;;;;;;;;;;;;;-0.60;100.00;91925.56;1065682;55;20161;-82
2020/12/09 02:46:41;;;;;;;;;;;;;;;-0.54;100.00;91931.16;1065712;55;20165;-82
2020/12/09 02:47:42;;;;;;;;;;;;;;;-0.56;100.00;91936.81;1065763;55;20149;-84
2020/12/09 02:48:42;;;;;;;;;;;;;;;-0.48;100.00;91934.16;1063628;55;20161;-82
2020/12/09 02:49:43;;;;;;;;;;;;;;;-0.55;100.00;91940.19;1063480;55;20189;-82
2020/12/09 02:50:45;;;;;;;;;;;;;;;-0.58;100.00;91933.03;1065951;55;20344;-85
2020/12/09 02:51:45;;;;;;;;;;;;;;;-0.52;100.00;91942.06;1068061;55;20259;-82
2020/12/09 02:52:45;;;;;;;;;;;;;;;-0.56;100.00;91933.44;1067872;55;20162;-85
2020/12/09 02:53:46;;;;;;;;;;;;;;;-0.57;100.00;91942.41;1063718;55;20181;-84
2020/12/09 02:54:46;;;;;;;;;;;;;;;-0.49;100.00;91943.91;1065936;55;20186;-83
2020/12/09 02:55:47;;;;;;;;;;;;;;;-0.55;100.00;91940.91;1063739;55;20249;-83
2020/12/09 02:56:47;;;;;;;;;;;;;;;-0.52;100.00;91942.06;1065753;55;20996;-83
2020/12/09 02:57:49;;;;;;;;;;;;;;;-0.52;100.00;91950.69;1065765;55;20222;-83
2020/12/09 02:58:49;;;;;;;;;;;;;;;-0.55;100.00;91940.91;1064204;55;20267;-83
2020/12/09 02:59:50;;;;;;;;;;;;;;;-0.49;100.00;91946.53;1065752;55;20626;-82
2020/12/09 03:00:51;;;;;;;;;;;;;;;-0.48;100.00;91939.41;1065617;55;20181;-83
2020/12/09 03:01:51;;;;;;;;;;;;;;;-0.49;100.00;91941.28;1063512;55;20173;-84
2020/12/09 03:02:51;;;;;;;;;;;;;;;-0.54;100.00;91945.03;1062076;56;20154;-83
2020/12/09 03:03:52;;;;;;;;;;;;;;;-0.58;100.00;91941.66;1061406;56;20161;-83
2020/12/09 03:04:52;;;;;;;;;;;;;;;-0.58;100.00;91943.53;1063528;55;20158;-83
2020/12/09 03:05:54;;;;;;;;;;;;;;;-0.57;100.00;91945.03;1063456;55;20244;-86
2020/12/09 03:06:56;;;;;;;;;;;;;;;-0.62;100.00;91940.16;1063626;55;21127;-83
2020/12/09 03:07:57;;;;;;;;;;;;;;;-0.67;100.00;91940.53;1065760;55;20204;-83
2020/12/09 03:08:57;;;;;;;;;;;;;;;-0.60;100.00;91935.31;1062342;56;20250;-83
2020/12/09 03:09:58;;;;;;;;;;;;;;;-0.51;100.00;91944.31;1063572;55;20251;-83
2020/12/09 03:11:00;;;;;;;;;;;;;;;-0.51;100.00;91940.94;1065604;55;20166;-83
2020/12/09 03:12:00;;;;;;;;;;;;;;;-0.61;100.00;91934.56;1063632;55;20267;-82
2020/12/09 03:13:01;;;;;;;;;;;;;;;-0.60;100.00;91938.69;1065523;55;20157;-84
2020/12/09 03:14:01;;;;;;;;;;;;;;;-0.63;100.00;91944.66;1064360;55;20697;-84
2020/12/09 03:15:02;;;;;;;;;;;;;;;-0.67;100.00;91941.28;1065765;55;20180;-81
2020/12/09 03:16:03;;;;;;;;;;;;;;;-0.64;100.00;91945.03;1065652;55;20158;-83
2020/12/09 03:17:05;;;;;;;;;;;;;;;-0.61;100.00;91934.56;1065802;55;20153;-84
2020/12/09 03:18:06;;;;;;;;;;;;;;;-0.57;100.00;91937.16;1066737;55;20161;-83
2020/12/09 03:19:06;;;;;;;;;;;;;;;-0.52;100.00;91934.19;1065709;55;20157;-83
2020/12/09 03:20:07;;;;;;;;;;;;;;;-0.58;100.00;91936.41;1064776;55;20150;-85
2020/12/09 03:21:08;;;;;;;;;;;;;;;-0.61;100.00;91933.81;1065768;55;20188;-85
2020/12/09 03:22:11;;;;;;;;;;;;;;;-0.62;100.00;91937.53;1065886;55;20234;-83
2020/12/09 03:23:12;;;;;;;;;;;;;;;-0.64;100.00;91937.16;1063331;55;20188;-83
2020/12/09 03:24:13;;;;;;;;;;;;;;;-0.62;100.00;91943.53;1060629;55;20182;-84
2020/12/09 03:25:14;;;;;;;;;;;;;;;-0.59;100.00;91944.66;1065791;55;20170;-83
2020/12/09 03:26:14;;;;;;;;;;;;;;;-0.65;100.00;91936.44;1067801;55;20180;-84
2020/12/09 03:27:15;;;;;;;;;;;;;;;-0.67;100.00;91943.91;1065784;55;20250;-83
2020/12/09 03:28:16;;;;;;;;;;;;;;;-0.73;100.00;91937.53;1065713;55;20162;-84
2020/12/09 03:29:16;;;;;;;;;;;;;;;-0.71;100.00;91937.91;1063429;55;21122;-83
2020/12/09 03:30:17;;;;;;;;;;;;;;;-0.74;100.00;91940.53;1063204;55;20248;-83
2020/12/09 03:31:18;;;;;;;;;;;;;;;-0.73;100.00;91940.16;1063358;55;20262;-83
2020/12/09 03:32:18;;;;;;;;;;;;;;;-0.70;100.00;91942.06;1063340;55;20154;-83
2020/12/09 03:33:19;;;;;;;;;;;;;;;-0.63;100.00;91936.78;1064897;55;20185;-83
2020/12/09 03:34:19;;;;;;;;;;;;;;;-0.60;100.00;91940.56;1063383;55;20701;-85
2020/12/09 03:35:20;;;;;;;;;;;;;;;-0.65;100.00;91940.94;1065572;55;20574;-84
2020/12/09 03:36:21;;;;;;;;;;;;;;;-0.62;100.00;91937.53;1064973;55;20188;-83
2020/12/09 03:37:21;;;;;;;;;;;;;;;-0.64;100.00;91935.28;1067241;55;20153;-82
2020/12/09 03:38:21;;;;;;;;;;;;;;;-0.67;100.00;91941.28;1065678;55;20727;-84
2020/12/09 03:39:22;;;;;;;;;;;;;;;-0.73;100.00;91942.78;1063326;55;20181;-82
2020/12/09 03:40:23;;;;;;;;;;;;;;;-0.72;100.00;91940.91;1065496;55;20173;-82
2020/12/09 03:41:23;;;;;;;;;;;;;;;-0.70;100.00;91949.91;1065591;55;20368;-83
2020/12/09 03:42:24;;;;;;;;;;;;;;;-0.67;100.00;91943.91;1061343;56;20162;-82
2020/12/09 03:43:24;;;;;;;;;;;;;;;-0.70;100.00;91947.28;1063426;55;20157;-83
2020/12/09 03:44:25;;;;;;;;;;;;;;;-0.63;100.00;91951.78;1065597;55;20196;-83
2020/12/09 03:45:25;;;;;;;;;;;;;;;-0.66;100.00;91955.16;1065364;55;20680;-82
2020/12/09 03:46:26;;;;;;;;;;;;;;;-0.58;100.00;91952.16;1063429;55;20161;-83
2020/12/09 03:47:26;;;;;;;;;;;;;;;-0.69;100.00;91950.66;1065488;55;21158;-83
2020/12/09 03:48:27;;;;;;;;;;;;;;;-0.68;100.00;91952.16;1067736;55;20625;-84
2020/12/09 03:49:28;;;;;;;;;;;;;;;-0.64;100.00;91948.41;1065604;55;20162;-83
2020/12/09 03:50:28;;;;;;;;;;;;;;;-0.63;100.00;91949.91;1065626;55;20185;-84
2020/12/09 03:51:29;;;;;;;;;;;;;;;-0.66;100.00;91955.94;1063490;55;20635;-83
2020/12/09 03:52:29;;;;;;;;;;;;;;;-0.70;100.00;91951.75;1065572;55;20192;-82
2020/12/09 03:53:32;;;;;;;;;;;;;;;-0.67;100.00;91954.41;1065508;55;20157;-84
2020/12/09 03:54:33;;;;;;;;;;;;;;;-0.62;100.00;91956.66;1065565;55;20315;-83
2020/12/09 03:55:33;;;;;;;;;;;;;;;-0.55;100.00;91964.53;1065542;55;20302;-83
2020/12/09 03:56:33;;;;;;;;;;;;;;;-0.51;100.00;91962.66;1065508;55;20734;-83
2020/12/09 03:57:34;;;;;;;;;;;;;;;-0.52;100.00;91955.94;1063389;55;20166;-84
2020/12/09 03:58:35;;;;;;;;;;;;;;;-0.56;100.00;91959.69;1061250;56;20198;-83
2020/12/09 03:59:35;;;;;;;;;;;;;;;-0.58;100.00;91961.91;1063454;55;20153;-82
2020/12/09 04:00:36;;;;;;;;;;;;;;;-0.62;100.00;91967.16;1065564;55;20161;-83
2020/12/09 04:01:36;;;;;;;;;;;;;;;-0.64;100.00;91966.78;1067668;55;20184;-84
2020/12/09 04:02:37;;;;;;;;;;;;;;;-0.66;100.00;91965.66;1067760;55;20154;-84
2020/12/09 04:03:37;;;;;;;;;;;;;;;-0.62;100.00;91969.03;1063361;55;20158;-84
2020/12/09 04:04:38;;;;;;;;;;;;;;;-0.61;100.00;91970.53;1065563;55;20564;-83
2020/12/09 04:05:38;;;;;;;;;;;;;;;-0.64;100.00;91977.28;1065552;55;20295;-82
2020/12/09 04:06:39;;;;;;;;;;;;;;;-0.59;100.00;91976.91;1067645;55;20192;-84
2020/12/09 04:07:40;;;;;;;;;;;;;;;-0.52;100.00;91971.69;1067771;55;20177;-83
2020/12/09 04:08:41;;;;;;;;;;;;;;;-0.60;100.00;91972.03;1067793;55;20180;-83
2020/12/09 04:09:41;;;;;;;;;;;;;;;-0.60;100.00;91972.03;1065521;55;20157;-83
2020/12/09 04:10:41;;;;;;;;;;;;;;;-0.64;100.00;91974.66;1063291;55;20259;-82
2020/12/09 04:11:42;;;;;;;;;;;;;;;-0.67;100.00;91974.66;1065547;55;20181;-82
2020/12/09 04:12:43;;;;;;;;;;;;;;;-0.64;100.00;91973.91;1065561;55;20655;-83
2020/12/09 04:13:43;;;;;;;;;;;;;;;-0.68;100.00;91973.91;1063514;55;20166;-84
2020/12/09 04:14:44;;;;;;;;;;;;;;;-0.69;100.00;91972.41;1067817;55;20188;-82
2020/12/09 04:15:44;;;;;;;;;;;;;;;-0.57;100.00;91968.66;1070174;55;20257;-84
2020/12/09 04:16:45;;;;;;;;;;;;;;;-0.58;100.00;91977.66;1063491;55;20618;-82
2020/12/09 04:17:45;;;;;;;;;;;;;;;-0.56;100.00;91973.53;1063437;55;20243;-84
2020/12/09 04:18:45;;;;;;;;;;;;;;;-0.57;100.00;91981.78;1067788;55;20184;-83
2020/12/09 04:19:46;;;;;;;;;;;;;;;-0.66;100.00;91981.38;1067763;55;20157;-84
2020/12/09 04:20:47;;;;;;;;;;;;;;;-0.61;100.00;91976.53;1065649;55;20262;-84
2020/12/09 04:21:48;;;;;;;;;;;;;;;-0.61;100.00;91979.16;1063601;55;20166;-84
2020/12/09 04:22:50;;;;;;;;;;;;;;;-0.59;100.00;91979.53;1063544;55;20157;-83
2020/12/09 04:23:50;;;;;;;;;;;;;;;-0.64;100.00;91982.53;1061450;56;20162;-83
2020/12/09 04:24:50;;;;;;;;;;;;;;;-0.62;100.00;91975.03;1061342;56;20150;-82
2020/12/09 04:25:51;;;;;;;;;;;;;;;-0.63;100.00;91973.53;1063396;55;20623;-84
2020/12/09 04:26:52;;;;;;;;;;;;;;;-0.63;100.00;91976.16;1065544;55;20271;-82
2020/12/09 04:27:53;;;;;;;;;;;;;;;-0.57;100.00;91974.69;1065536;55;20185;-83
2020/12/09 04:28:53;;;;;;;;;;;;;;;-0.63;100.00;91981.41;1065855;55;20215;-84
2020/12/09 04:29:54;;;;;;;;;;;;;;;-0.61;100.00;91975.78;1067952;55;20634;-82
2020/12/09 04:30:55;;;;;;;;;;;;;;;-0.65;100.00;91983.66;1067794;55;20184;-83
2020/12/09 04:31:55;;;;;;;;;;;;;;;-0.63;100.00;91980.66;1067817;55;20188;-83
2020/12/09 04:32:55;;;;;;;;;;;;;;;-0.60;100.00;91985.91;1065825;55;20161;-83
2020/12/09 04:34:00;;;;;;;;;;;;;;;-0.65;100.00;91977.66;1063580;55;20182;-84
2020/12/09 04:35:01;;;;;;;;;;;;;;;-0.58;100.00;91982.91;1063860;55;20191;-83
2020/12/09 04:36:02;;;;;;;;;;;;;;;-0.63;100.00;91978.03;1063424;55;20173;-82
2020/12/09 04:37:03;;;;;;;;;;;;;;;-0.63;100.00;91978.78;1061164;55;20157;-84
2020/12/09 04:38:05;;;;;;;;;;;;;;;-0.63;100.00;91984.03;1063535;55;20189;-82
2020/12/09 04:39:05;;;;;;;;;;;;;;;-0.64;100.00;91994.91;1065735;55;20182;-82
2020/12/09 04:40:06;;;;;;;;;;;;;;;-0.66;100.00;91990.03;1065650;55;20172;-83
2020/12/09 04:41:07;;;;;;;;;;;;;;;-0.66;100.00;91997.91;1063499;55;20181;-83
2020/12/09 04:42:07;;;;;;;;;;;;;;;-0.60;100.00;91995.66;1067912;55;20242;-85
2020/12/09 04:43:07;;;;;;;;;;;;;;;-0.65;100.00;91991.53;1067789;55;20180;-83
2020/12/09 04:44:08;;;;;;;;;;;;;;;-0.59;100.00;91997.91;1065764;55;20180;-82
2020/12/09 04:45:08;;;;;;;;;;;;;;;-0.56;100.00;91997.16;1067905;55;20578;-82
2020/12/09 04:46:09;;;;;;;;;;;;;;;-0.53;100.00;91996.44;1065644;55;20188;-83
2020/12/09 04:47:15;;;;;;;;;;;;;;;-0.48;100.00;91999.78;1065437;55;20165;-81
2020/12/09 04:48:16;;;;;;;;;;;;;;;-0.48;99.41;91997.16;1065820;55;20207;-84
2020/12/09 04:49:18;;;;;;;;;;;;;;;-0.57;98.99;92006.16;1067838;55;20633;-83
2020/12/09 04:50:21;;;;;;;;;;;;;;;-0.59;100.00;92003.16;1065753;55;20638;-83
2020/12/09 04:51:30;;;;;;;;;;;;;;;-0.57;99.81;92005.37;1065554;55;20177;-83
2020/12/09 04:52:31;;;;;;;;;;;;;;;-0.59;100.00;91994.53;1065399;55;20184;-83
2020/12/09 04:53:31;;;;;;;;;;;;;;;-0.59;100.00;92003.16;1063475;55;20153;-83
2020/12/09 04:54:34;;;;;;;;;;;;;;;-0.57;100.00;92010.63;1063470;56;20173;-84
2020/12/09 04:55:40;;;;;;;;;;;;;;;-0.58;100.00;92001.28;1063817;55;20177;-82
2020/12/09 04:56:53;;;;;;;;;;;;;;;-0.58;100.00;92009.16;1063722;55;20173;-84
2020/12/09 04:58:10;;;;;;;;;;;;;;;-0.60;100.00;92011.41;1064849;55;20158;-83
2020/12/09 04:59:17;;;;;;;;;;;;;;;-0.69;100.00;92001.25;1066900;55;20184;-82
2020/12/09 05:00:17;;;;;;;;;;;;;;;-0.68;100.00;92008.00;1064389;55;20594;-84
2020/12/09 05:01:19;;;;;;;;;;;;;;;-0.63;100.00;92002.38;1062001;55;20169;-82
2020/12/09 05:02:23;;;;;;;;;;;;;;;-0.62;100.00;92003.88;1064041;55;20196;-84
2020/12/09 05:03:27;;;;;;;;;;;;;;;-0.69;100.00;92003.13;1066447;55;20256;-83
2020/12/09 05:04:29;;;;;;;;;;;;;;;-0.61;100.00;92004.66;1066245;55;20173;-83
2020/12/09 05:05:29;;;;;;;;;;;;;;;-0.65;100.00;91999.41;1066360;55;20180;-83
2020/12/09 05:06:30;;;;;;;;;;;;;;;-0.62;100.00;91998.63;1066282;55;20598;-83
2020/12/09 05:07:35;;;;;;;;;;;;;;;-0.59;100.00;92007.66;1066091;55;21172;-83
2020/12/09 05:08:36;;;;;;;;;;;;;;;-0.60;100.00;92003.53;1064441;55;20177;-83
2020/12/09 05:09:44;;;;;;;;;;;;;;;-0.67;100.00;92009.50;1062105;55;20610;-84
2020/12/09 05:10:49;;;;;;;;;;;;;;;-0.65;100.00;91999.41;1064702;55;20638;-82
2020/12/09 05:11:50;;;;;;;;;;;;;;;-0.68;100.00;92009.88;1068379;55;20193;-83
2020/12/09 05:12:51;;;;;;;;;;;;;;;-0.65;100.00;92002.03;1064276;55;20154;-83
2020/12/09 05:13:53;;;;;;;;;;;;;;;-0.58;100.00;92003.91;1064258;55;20150;-82
2020/12/09 05:14:56;;;;;;;;;;;;;;;-0.60;100.00;92006.91;1062358;55;20181;-82